ADDS METAR Data INFO
IDs: Format: Raw Decoded Include TAF

Data at: 0958 UTC 12 Dec 2017

KPUJ 120955Z AUTO 00000KT 10SM CLR 08/04 A2985 RMK AO2
KPUJ 120935Z AUTO 00000KT 10SM CLR 08/05 A2986 RMK AO2
KPUJ 120915Z AUTO 00000KT 10SM CLR 09/05 A2986 RMK AO2
KPUJ 120855Z AUTO 00000KT 10SM CLR 09/05 A2986 RMK AO2
KPUJ 120835Z AUTO 00000KT 10SM CLR 10/05 A2986 RMK AO2
KPUJ 120815Z AUTO 00000KT 10SM CLR 10/05 A2986 RMK AO2
KPUJ 120755Z AUTO 00000KT 10SM CLR 10/05 A2987 RMK AO2
KPUJ 120735Z AUTO 00000KT 10SM CLR 10/05 A2988 RMK AO2
KPUJ 120715Z AUTO 00000KT 10SM CLR 10/05 A2988 RMK AO2
KPUJ 120655Z AUTO 00000KT 10SM CLR 10/05 A2988 RMK AO2
KPUJ 120635Z AUTO 00000KT 10SM CLR 10/05 A2989 RMK AO2
KPUJ 120615Z AUTO 25003KT 10SM CLR 10/05 A2990 RMK AO2
KPUJ 120555Z AUTO 00000KT 10SM CLR 10/05 A2991 RMK AO2
KPUJ 120535Z AUTO 00000KT 10SM CLR 10/04 A2992 RMK AO2
KPUJ 120515Z AUTO 25003KT 10SM CLR 10/04 A2993 RMK AO2
KPUJ 120455Z AUTO 00000KT 10SM CLR 10/04 A2993 RMK AO2
KPUJ 120435Z AUTO 00000KT 10SM CLR 10/04 A2994 RMK AO2
KPUJ 120415Z AUTO 00000KT 10SM CLR 10/04 A2995 RMK AO2
KPUJ 120355Z AUTO 00000KT 10SM CLR 10/04 A2995 RMK AO2
KPUJ 120335Z AUTO 00000KT 10SM CLR 10/04 A2995 RMK AO2
KPUJ 120320Z AUTO 00000KT 10SM CLR 10/04 A2995 RMK AO2
KPUJ 120255Z AUTO 00000KT 10SM CLR 10/04 A2996 RMK AO2
KPUJ 120235Z AUTO 00000KT 10SM CLR 10/05 A2997 RMK AO2
KPUJ 120215Z AUTO 00000KT 10SM CLR 10/04 A2998 RMK AO2
KPUJ 120155Z AUTO 00000KT 10SM CLR 10/04 A2999 RMK AO2
KPUJ 120135Z AUTO 00000KT 10SM CLR 10/04 A2998 RMK AO2
KPUJ 120115Z AUTO 00000KT 10SM CLR 10/04 A2999 RMK AO2
KPUJ 120055Z AUTO 00000KT 10SM CLR 10/04 A3000 RMK AO2
KPUJ 120035Z AUTO 00000KT 10SM CLR 10/04 A3000 RMK AO2
KPUJ 120015Z AUTO 00000KT 10SM CLR 11/04 A3000 RMK AO2
KPUJ 112355Z AUTO 00000KT 10SM CLR 11/04 A3000 RMK AO2
KPUJ 112335Z AUTO 00000KT 10SM CLR 11/04 A3000 RMK AO2
KPUJ 112315Z AUTO 00000KT 10SM CLR 12/04 A3001 RMK AO2
KPUJ 112255Z AUTO 00000KT 10SM CLR 12/03 A3001 RMK AO2
KPUJ 112235Z AUTO 00000KT 10SM CLR 13/03 A3000 RMK AO2
KPUJ 112215Z AUTO 00000KT 10SM CLR 14/03 A3001 RMK AO2
KPUJ 112155Z AUTO 00000KT 10SM CLR 15/03 A3002 RMK AO2
KPUJ 112135Z AUTO 00000KT 10SM CLR 15/03 A3002 RMK AO2
KPUJ 112115Z AUTO 00000KT 10SM CLR 15/03 A3003 RMK AO2
KPUJ 112055Z AUTO 00000KT 10SM CLR 15/03 A3003 RMK AO2
KPUJ 112035Z AUTO 00000KT 10SM CLR 15/02 A3003 RMK AO2
KPUJ 112015Z AUTO 00000KT 10SM CLR 16/02 A3004 RMK AO2
KPUJ 111955Z AUTO 00000KT 10SM CLR 16/03 A3004 RMK AO2
KPUJ 111935Z AUTO 00000KT 10SM CLR 16/03 A3005 RMK AO2
KPUJ 111915Z AUTO 00000KT 10SM CLR 16/02 A3006 RMK AO2
KPUJ 111855Z AUTO 00000KT 10SM CLR 15/03 A3007 RMK AO2
KPUJ 111835Z AUTO 00000KT 10SM CLR 15/02 A3008 RMK AO2
KPUJ 111815Z AUTO 00000KT 10SM CLR 14/03 A3008 RMK AO2
KPUJ 111755Z AUTO 00000KT 10SM CLR 14/03 A3009 RMK AO2
KPUJ 111735Z AUTO 00000KT 10SM CLR 13/02 A3010 RMK AO2
KPUJ 111715Z AUTO 00000KT 10SM CLR 12/02 A3012 RMK AO2
KPUJ 111655Z AUTO 00000KT 10SM CLR 12/02 A3014 RMK AO2
KPUJ 111635Z AUTO 00000KT 10SM CLR 11/02 A3015 RMK AO2
KPUJ 111615Z AUTO 00000KT 10SM CLR 11/02 A3016 RMK AO2
KPUJ 111555Z AUTO 00000KT 10SM CLR 10/01 A3016 RMK AO2
KPUJ 111535Z AUTO 00000KT 10SM CLR 09/01 A3017 RMK AO2
KPUJ 111515Z AUTO 00000KT 10SM CLR 08/01 A3017 RMK AO2
KPUJ 111455Z AUTO 00000KT 10SM CLR 08/01 A3016 RMK AO2
KPUJ 111435Z AUTO 00000KT 10SM CLR 07/01 A3017 RMK AO2
KPUJ 111415Z AUTO 00000KT 10SM CLR 06/00 A3017 RMK AO2
KPUJ 111355Z AUTO 00000KT 10SM CLR 05/00 A3016 RMK AO2
KPUJ 111335Z AUTO 00000KT 10SM CLR 05/00 A3017 RMK AO2
KPUJ 111315Z AUTO 00000KT 10SM CLR 04/00 A3018 RMK AO2
KPUJ 111255Z AUTO 00000KT 10SM CLR 03/00 A3017 RMK AO2
KPUJ 111235Z AUTO 00000KT 10SM CLR 04/00 A3016 RMK AO2
KPUJ 111215Z AUTO 00000KT 10SM CLR 04/00 A3017 RMK AO2
KPUJ 111155Z AUTO 00000KT 10SM CLR 03/00 A3017 RMK AO2
KPUJ 111135Z AUTO 00000KT 10SM CLR 03/00 A3017 RMK AO2
KPUJ 111115Z AUTO 00000KT 10SM CLR 03/00 A3016 RMK AO2
KPUJ 111100Z AUTO 00000KT 10SM CLR 03/00 A3016 RMK AO2
KPUJ 111035Z AUTO 00000KT 10SM CLR 03/00 A3015 RMK AO2
KPUJ 111015Z AUTO 00000KT 10SM CLR 03/00 A3016 RMK AO2
KPUJ 110955Z AUTO 00000KT 10SM CLR 03/00 A3016 RMK AO2
KPUJ 110935Z AUTO 00000KT 10SM CLR 03/00 A3017 RMK AO2
KPUJ 110915Z AUTO 00000KT 10SM CLR 03/00 A3017 RMK AO2
KPUJ 110855Z AUTO 00000KT 10SM CLR 03/00 A3018 RMK AO2
KPUJ 110835Z AUTO 00000KT 10SM CLR 02/00 A3018 RMK AO2
KPUJ 110815Z AUTO 00000KT 10SM CLR 02/00 A3018 RMK AO2
KPUJ 110755Z AUTO 00000KT 10SM CLR 02/00 A3019 RMK AO2
KPUJ 110735Z AUTO 00000KT 10SM CLR 02/00 A3020 RMK AO2
KPUJ 110715Z AUTO 00000KT 10SM CLR 02/00 A3020 RMK AO2
KPUJ 110655Z AUTO 00000KT 10SM CLR 02/00 A3020 RMK AO2
KPUJ 110635Z AUTO 00000KT 10SM CLR 02/00 A3021 RMK AO2
KPUJ 110615Z AUTO 00000KT 10SM CLR 02/00 A3021 RMK AO2
KPUJ 110555Z AUTO 00000KT 10SM CLR 02/00 A3022 RMK AO2
KPUJ 110535Z AUTO 00000KT 10SM CLR 03/00 A3022 RMK AO2
KPUJ 110515Z AUTO 00000KT 10SM CLR 03/00 A3023 RMK AO2
KPUJ 110455Z AUTO 00000KT 10SM CLR 03/00 A3023 RMK AO2
KPUJ 110435Z AUTO 00000KT 10SM CLR 03/00 A3023 RMK AO2
KPUJ 110415Z AUTO 00000KT 10SM CLR 03/00 A3023 RMK AO2
KPUJ 110355Z AUTO 00000KT 10SM CLR 03/00 A3023 RMK AO2
KPUJ 110335Z AUTO 00000KT 10SM CLR 03/00 A3022 RMK AO2
KPUJ 110315Z AUTO 00000KT 10SM CLR 03/00 A3022 RMK AO2
KPUJ 110255Z AUTO 00000KT 10SM CLR 03/00 A3021 RMK AO2
KPUJ 110235Z AUTO 00000KT 10SM CLR 03/00 A3021 RMK AO2
KPUJ 110220Z AUTO 00000KT 10SM CLR 03/00 A3020 RMK AO2
KPUJ 110155Z AUTO 00000KT 10SM CLR 03/00 A3020 RMK AO2
KPUJ 110135Z AUTO 00000KT 10SM CLR 03/00 A3021 RMK AO2
KPUJ 110115Z AUTO 00000KT 10SM CLR 03/00 A3020 RMK AO2
KPUJ 110055Z AUTO 00000KT 10SM CLR 03/00 A3020 RMK AO2
KPUJ 110035Z AUTO 00000KT 10SM CLR 03/00 A3020 RMK AO2
KPUJ 110015Z AUTO 00000KT 10SM CLR 03/00 A3021 RMK AO2
KPUJ 102355Z AUTO 00000KT 10SM CLR 04/00 A3021 RMK AO2
KPUJ 102335Z AUTO 00000KT 10SM CLR 04/00 A3021 RMK AO2
KPUJ 102315Z AUTO 00000KT 10SM CLR 05/00 A3021 RMK AO2
KPUJ 102255Z AUTO 00000KT 10SM CLR 05/M01 A3021 RMK AO2
KPUJ 102235Z AUTO 00000KT 10SM CLR 06/M01 A3021 RMK AO2
KPUJ 102215Z AUTO 00000KT 10SM CLR 06/M01 A3020 RMK AO2